This is the latest recevied weather packets stored in our database for station/object KQ4WWD. If no packets are shown the sender has not sent any weather packets the latest 10 day(s).
| Time | Temp. | Humidity | Pressure | Rain* | Wind** | Luminosity | Snow |
|---|---|---|---|---|---|---|---|
| 1777395799 | 30° C | 63% | 1019.5 hPa | 0 mm | - | 869 W/m² | - |
| 1777395494 | 29.44° C | 63% | 1019.6 hPa | 0 mm | - | 834 W/m² | - |
| 1777395192 | 28.89° C | 65% | 1019.6 hPa | 0 mm | - | 458 W/m² | - |
| 1777394889 | 28.89° C | 64% | 1019.6 hPa | 0 mm | - | 836 W/m² | - |
| 1777394585 | 28.33° C | 67% | 1019.7 hPa | 0 mm | - | 229 W/m² | - |
| 1777394281 | 28.89° C | 66% | 1019.8 hPa | 0 mm | - | 298 W/m² | - |
| 1777393978 | 28.89° C | 66% | 1019.8 hPa | 0 mm | - | 763 W/m² | - |
| 1777393677 | 28.89° C | 67% | 1019.9 hPa | 0 mm | - | 702 W/m² | - |
| 1777393373 | 29.44° C | 65% | 1019.7 hPa | 0 mm | - | 779 W/m² | - |
| 1777393069 | 28.33° C | 68% | 1019.6 hPa | 0 mm | - | 796 W/m² | - |
| 1777392765 | 27.78° C | 69% | 1019.5 hPa | 0 mm | - | 813 W/m² | - |
| 1777392461 | 28.89° C | 69% | 1019.6 hPa | 0 mm | - | 457 W/m² | - |
| 1777392157 | 26.67° C | 72% | 1019.9 hPa | 0 mm | - | 740 W/m² | - |
| 1777391852 | 26.67° C | 74% | 1020 hPa | 0 mm | - | 202 W/m² | - |
| 1777391548 | 27.78° C | 70% | 1019.8 hPa | 0 mm | - | 786 W/m² | - |
| 1777391244 | 26.67° C | 74% | 1019.9 hPa | 0 mm | - | 250 W/m² | - |
| 1777390941 | 26.67° C | 74% | 1019.7 hPa | 0 mm | - | 194 W/m² | - |
| 1777390637 | 27.78° C | 72% | 1020 hPa | 0 mm | - | 373 W/m² | - |
| 1777390334 | 26.67° C | 74% | 1020.4 hPa | 0 mm | - | 834 W/m² | - |
| 1777390029 | 26.11° C | 74% | 1020.4 hPa | 0 mm | - | 199 W/m² | - |
| 1777389727 | 26.11° C | 75% | 1020.3 hPa | 0 mm | - | 240 W/m² | - |
| 1777389423 | 27.22° C | 73% | 1020.6 hPa | 0 mm | - | 203 W/m² | - |
| 1777389121 | 27.22° C | 72% | 1020.4 hPa | 0 mm | - | 820 W/m² | - |
| 1777388818 | 27.22° C | 72% | 1020.3 hPa | 0 mm | - | 797 W/m² | - |
| 1777388516 | 26.11° C | 75% | 1020.5 hPa | 0 mm | - | 819 W/m² | - |
* Rain latest hour (hover to see other rain measurements)
** Current wind speed in m/s (hover to see current wind gust speed)